createdAt,value
2023-02-23T00:02:46.408Z,-1.38
2023-02-23T00:07:49.421Z,-1.43
2023-02-23T00:12:52.335Z,-1.48
2023-02-23T00:17:56.661Z,-1.53
2023-02-23T00:22:59.977Z,-1.57
2023-02-23T00:28:02.878Z,-1.60
2023-02-23T00:33:05.789Z,-1.63
2023-02-23T00:38:08.896Z,-1.68
2023-02-23T00:43:11.710Z,-1.73
2023-02-23T00:48:14.807Z,-1.76
2023-02-23T00:53:17.714Z,-1.78
2023-02-23T00:58:20.991Z,-1.81
2023-02-23T01:03:24.132Z,-1.84
2023-02-23T01:08:28.630Z,-1.85
2023-02-23T01:13:31.679Z,-1.89
2023-02-23T01:18:35.910Z,-1.93
2023-02-23T01:23:38.754Z,-1.99
2023-02-23T01:28:41.718Z,-2.05
2023-02-23T01:33:44.831Z,-2.10
2023-02-23T01:38:49.388Z,-2.16
2023-02-23T01:44:15.352Z,-2.20
2023-02-23T01:49:23.583Z,-2.25
2023-02-23T01:54:31.360Z,-2.30
2023-02-23T01:59:43.239Z,-2.36
2023-02-23T02:04:46.897Z,-2.39
2023-02-23T02:10:11.251Z,-2.43
2023-02-23T02:15:17.905Z,-2.44
2023-02-23T02:20:43.056Z,-2.45
2023-02-23T02:26:01.412Z,-2.47
2023-02-23T02:31:24.193Z,-2.50
2023-02-23T02:37:05.166Z,-2.53
2023-02-23T02:42:50.352Z,-2.55
2023-02-23T02:47:56.328Z,-2.57
2023-02-23T02:53:05.996Z,-2.60
2023-02-23T02:58:11.564Z,-2.63
2023-02-23T03:03:47.131Z,-2.66
2023-02-23T03:09:54.140Z,-2.68
2023-02-23T03:16:04.335Z,-2.71
2023-02-23T03:21:38.565Z,-2.76
2023-02-23T03:27:11.266Z,-2.80
2023-02-23T03:32:55.556Z,-2.84
2023-02-23T03:38:28.960Z,-2.84
2023-02-23T03:44:02.275Z,-2.77
2023-02-23T03:49:28.632Z,-2.69
2023-02-23T03:54:55.923Z,-2.59
2023-02-23T04:00:22.674Z,-2.51
2023-02-23T04:05:48.513Z,-2.44
2023-02-23T04:11:20.172Z,-2.34
2023-02-23T04:16:23.427Z,-2.25
2023-02-23T04:21:26.405Z,-2.18
2023-02-23T04:26:29.324Z,-2.11
2023-02-23T04:31:32.305Z,-2.05
2023-02-23T04:36:36.557Z,-1.99
2023-02-23T04:41:39.458Z,-1.94
2023-02-23T04:46:42.358Z,-1.89
2023-02-23T04:51:45.366Z,-1.76
2023-02-23T04:56:48.275Z,-1.61
2023-02-23T05:01:51.175Z,-1.56
2023-02-23T05:06:54.285Z,-1.56
2023-02-23T05:11:57.396Z,-1.58
2023-02-23T05:17:00.400Z,-1.60
2023-02-23T05:22:03.681Z,-1.62
2023-02-23T05:27:07.918Z,-1.64
2023-02-23T05:32:10.965Z,-1.66
2023-02-23T05:37:14.000Z,-1.68
2023-02-23T05:42:17.496Z,-1.70
2023-02-23T05:47:20.486Z,-1.73
2023-02-23T05:52:24.920Z,-1.74
2023-02-23T05:57:28.994Z,-1.72
2023-02-23T06:02:32.471Z,-1.67
2023-02-23T06:07:35.688Z,-1.52
2023-02-23T06:12:38.598Z,-1.30
2023-02-23T06:17:41.593Z,-1.14
2023-02-23T06:22:45.009Z,-0.92
2023-02-23T06:27:47.914Z,-0.58
2023-02-23T06:32:50.819Z,-0.23
2023-02-23T06:37:54.075Z,-0.05
2023-02-23T06:42:57.241Z,-0.05
2023-02-23T06:48:01.015Z,0.01
2023-02-23T06:53:04.080Z,0.06
2023-02-23T06:58:08.209Z,0.16
2023-02-23T07:03:11.518Z,0.43
2023-02-23T07:08:14.459Z,0.88
2023-02-23T07:13:17.433Z,1.57
2023-02-23T07:18:20.369Z,2.18
2023-02-23T07:23:23.453Z,2.53
2023-02-23T07:28:28.604Z,2.85
2023-02-23T07:33:32.862Z,3.14
2023-02-23T07:38:36.782Z,3.43
2023-02-23T07:43:40.083Z,3.58
2023-02-23T07:48:46.737Z,3.65
2023-02-23T07:53:49.880Z,3.98
2023-02-23T07:58:52.785Z,4.80
2023-02-23T08:03:55.744Z,5.61
2023-02-23T08:09:01.197Z,6.38
2023-02-23T08:14:04.169Z,7.00
2023-02-23T08:19:07.070Z,7.42
2023-02-23T08:24:11.095Z,7.50
2023-02-23T08:29:14.000Z,7.31
2023-02-23T08:34:17.825Z,7.18
2023-02-23T08:39:21.344Z,6.44
2023-02-23T08:44:24.351Z,5.87
2023-02-23T08:49:27.264Z,5.30
2023-02-23T08:54:30.874Z,5.08
2023-02-23T08:59:33.983Z,5.68
2023-02-23T09:04:37.708Z,6.28
2023-02-23T09:09:40.920Z,6.37
2023-02-23T09:14:43.820Z,6.49
2023-02-23T09:19:46.721Z,7.10
2023-02-23T09:24:49.643Z,7.71
2023-02-23T09:29:52.535Z,7.29
2023-02-23T09:34:55.846Z,6.66
2023-02-23T09:39:58.955Z,6.26
2023-02-23T09:45:17.219Z,5.84
2023-02-23T09:50:27.090Z,5.50
2023-02-23T09:55:31.020Z,5.50
2023-02-23T10:00:40.988Z,6.17
2023-02-23T10:05:48.521Z,7.18
2023-02-23T10:10:59.584Z,7.70
2023-02-23T10:16:37.731Z,7.99
2023-02-23T10:21:47.911Z,8.44
2023-02-23T10:26:55.742Z,8.99
2023-02-23T10:32:04.770Z,9.30
2023-02-23T10:37:11.458Z,9.66
2023-02-23T10:42:20.325Z,9.25
2023-02-23T10:47:33.369Z,8.52
2023-02-23T10:52:44.625Z,8.08
2023-02-23T10:57:47.556Z,7.75
2023-02-23T11:02:50.416Z,7.48
2023-02-23T11:08:19.895Z,7.12
2023-02-23T11:13:26.678Z,6.86
2023-02-23T11:18:30.612Z,6.69
2023-02-23T11:23:37.031Z,6.43
2023-02-23T11:28:43.423Z,6.42
2023-02-23T11:33:48.513Z,6.86
2023-02-23T11:39:24.856Z,7.50
2023-02-23T11:44:28.137Z,8.27
2023-02-23T11:49:36.162Z,8.49
2023-02-23T11:54:52.172Z,9.48
2023-02-23T11:59:58.357Z,10.34
2023-02-23T12:05:10.016Z,10.79
2023-02-23T12:10:33.938Z,10.92
2023-02-23T12:15:55.602Z,11.28
2023-02-23T12:21:08.031Z,12.54
2023-02-23T12:26:19.081Z,13.39
2023-02-23T12:31:28.701Z,13.71
2023-02-23T12:36:51.157Z,13.57
2023-02-23T12:42:32.347Z,13.70
2023-02-23T12:47:56.347Z,14.04
2023-02-23T12:53:12.554Z,13.95
2023-02-23T12:58:23.621Z,13.28
2023-02-23T13:03:41.514Z,12.38
2023-02-23T13:09:02.759Z,11.05
2023-02-23T13:14:11.800Z,10.19
2023-02-23T13:19:47.164Z,11.10
2023-02-23T13:24:54.267Z,11.70
2023-02-23T13:29:59.350Z,11.77
2023-02-23T13:35:13.491Z,11.71
2023-02-23T13:40:35.884Z,11.72
2023-02-23T13:46:01.876Z,11.39
2023-02-23T13:51:18.486Z,10.40
2023-02-23T13:56:28.284Z,9.39
2023-02-23T14:01:44.011Z,8.53
2023-02-23T14:07:00.410Z,8.03
2023-02-23T14:12:19.595Z,7.92
2023-02-23T14:17:22.314Z,8.07
2023-02-23T14:22:25.308Z,8.20
2023-02-23T14:27:43.418Z,8.64
2023-02-23T14:32:49.357Z,9.18
2023-02-23T14:37:59.950Z,9.69
2023-02-23T14:43:04.271Z,9.58
2023-02-23T14:48:17.257Z,9.40
2023-02-23T14:53:24.405Z,9.00
2023-02-23T14:58:33.596Z,8.59
2023-02-23T15:03:37.380Z,8.08
2023-02-23T15:08:45.014Z,7.58
2023-02-23T15:13:50.529Z,7.04
2023-02-23T15:18:53.782Z,6.45
2023-02-23T15:24:16.753Z,5.95
2023-02-23T15:29:22.929Z,5.48
2023-02-23T15:34:30.208Z,5.06
2023-02-23T15:39:57.079Z,4.77
2023-02-23T15:45:03.472Z,4.49
2023-02-23T15:50:36.539Z,4.23
2023-02-23T15:55:43.910Z,3.99
2023-02-23T16:00:56.168Z,3.79
2023-02-23T16:06:04.054Z,3.60
2023-02-23T16:11:15.256Z,3.42
2023-02-23T16:16:25.472Z,3.26
2023-02-23T16:21:35.078Z,3.11
2023-02-23T16:26:41.179Z,2.99
2023-02-23T16:31:50.553Z,2.92
2023-02-23T16:36:59.581Z,2.85
2023-02-23T16:42:02.489Z,2.85
2023-02-23T16:47:06.821Z,2.89
2023-02-23T16:52:17.688Z,2.90
2023-02-23T16:57:22.687Z,2.91
2023-02-23T17:02:25.725Z,2.94
2023-02-23T17:07:28.782Z,2.97
2023-02-23T17:12:32.858Z,3.01
2023-02-23T17:17:36.547Z,3.02
2023-02-23T17:22:39.437Z,3.08
2023-02-23T17:27:42.338Z,3.13
2023-02-23T17:32:45.746Z,3.17
2023-02-23T17:37:49.579Z,3.22
2023-02-23T17:42:53.385Z,3.26
2023-02-23T17:47:57.847Z,3.27
2023-02-23T17:53:00.955Z,3.27
2023-02-23T17:58:03.859Z,3.26
2023-02-23T18:03:07.086Z,3.28
2023-02-23T18:08:09.970Z,3.31
2023-02-23T18:13:12.873Z,3.34
2023-02-23T18:18:15.883Z,3.37
2023-02-23T18:23:20.206Z,3.42
2023-02-23T18:28:23.124Z,3.49
2023-02-23T18:33:26.031Z,3.57
2023-02-23T18:38:28.933Z,3.64
2023-02-23T18:43:31.837Z,3.72
2023-02-23T18:48:35.765Z,3.79
2023-02-23T18:53:38.977Z,3.86
2023-02-23T18:58:44.703Z,3.93
2023-02-23T19:03:49.708Z,4.01
2023-02-23T19:08:57.415Z,4.08
2023-02-23T19:14:03.980Z,4.14
2023-02-23T19:19:08.548Z,4.20
2023-02-23T19:24:11.447Z,4.25
2023-02-23T19:29:14.252Z,4.30
2023-02-23T19:34:17.160Z,4.36
2023-02-23T19:39:20.199Z,4.41
2023-02-23T19:44:23.069Z,4.47
2023-02-23T19:49:26.178Z,4.52
2023-02-23T19:54:34.131Z,4.56
2023-02-23T19:59:37.937Z,4.59
2023-02-23T20:04:40.935Z,4.61
2023-02-23T20:09:44.554Z,4.63
2023-02-23T20:14:49.723Z,4.65
2023-02-23T20:19:52.998Z,4.71
2023-02-23T20:24:57.153Z,4.78
2023-02-23T20:30:00.476Z,4.81
2023-02-23T20:35:03.578Z,4.79
2023-02-23T20:40:18.677Z,4.73
2023-02-23T20:45:24.741Z,4.66
2023-02-23T20:50:34.056Z,4.61
2023-02-23T20:55:37.419Z,4.55
2023-02-23T21:00:40.627Z,4.52
2023-02-23T21:05:43.539Z,4.51
2023-02-23T21:10:48.915Z,4.52
2023-02-23T21:16:01.300Z,4.53
2023-02-23T21:21:10.030Z,4.54
2023-02-23T21:26:16.265Z,4.54
2023-02-23T21:31:19.631Z,4.53
2023-02-23T21:36:23.306Z,4.54
2023-02-23T21:41:27.721Z,4.56
2023-02-23T21:46:32.398Z,4.57
2023-02-23T21:51:36.806Z,4.58
2023-02-23T21:56:39.818Z,4.59
2023-02-23T22:01:43.704Z,4.61
2023-02-23T22:06:46.751Z,4.61
2023-02-23T22:11:50.163Z,4.62
2023-02-23T22:16:53.067Z,4.61
2023-02-23T22:21:55.971Z,4.61
2023-02-23T22:27:01.129Z,4.60
2023-02-23T22:32:04.225Z,4.60
2023-02-23T22:37:07.653Z,4.58
2023-02-23T22:42:12.922Z,4.55
2023-02-23T22:47:15.919Z,4.50
2023-02-23T22:52:18.841Z,4.45
2023-02-23T22:57:21.933Z,4.37
2023-02-23T23:02:24.936Z,4.29
2023-02-23T23:07:29.071Z,4.22
2023-02-23T23:12:34.427Z,4.17
2023-02-23T23:17:38.148Z,4.13
2023-02-23T23:22:41.256Z,4.10
2023-02-23T23:27:47.692Z,4.06
2023-02-23T23:32:50.627Z,4.03
2023-02-23T23:37:53.773Z,4.02
2023-02-23T23:42:56.665Z,4.01
2023-02-23T23:47:59.572Z,4.03
2023-02-23T23:53:04.696Z,4.04
2023-02-23T23:58:07.524Z,4.06
